KMVL/MVL METAR and TAF weather

Enter ICAO airport designator
Station Type Date Time Source
KMVL METAR 2020/10/20 16:54 UTC NOAA

KMVL 201654Z AUTO 01005KT 5SM -RA BR BKN004 BKN008 OVC041 14/13 A3020 RMK AO2 RAB00 SLP229 P0003 T01440133


Station Type Date Time Source
KMVL Decoded METAR 2020/10/20 16:54 UTC NOAA

MORRISVILLE STOWE STATE AIRPORT , VT, United States (KMVL) 44-32N 72-37W 223M
Oct 20, 2020 - 12:54 PM EDT / 2020.10.20 1654 UTC
Wind: from the N (010 degrees) at 6 MPH (5 KT):0
Visibility: 5 mile(s):0
Sky conditions: overcast
Weather: light rain; mist
Precipitation last hour: 0.03 inches
Temperature: 57.9 F (14.4 C)
Dew Point: 55.9 F (13.3 C)
Relative Humidity: 93%
Pressure (altimeter): 30.2 in. Hg (1022 hPa)
ob: KMVL 201654Z AUTO 01005KT 5SM -RA BR BKN004 BKN008 OVC041 14/13 A3020 RMK AO2 RAB00 SLP229 P0003 T01440133
cycle: 17

Station Type Date Time Source
KMVL TAF UTC NOAA

Error!

Example: see airport list